Time;durP1;ratioP1;P1;durP2;ratioP2;P2;SDS_P1;SDS_P2;PMS_P1;PMS_P2;Temp;Humidity;BMP_temperature;BMP_pressure;BME280_temperature;BME280_humidity;BME280_pressure;Samples;Min_cycle;Max_cycle;Signal;HPM_P1;HPM_P2
2022/12/10 00:01:51;;;;;;;78.45;37.95;;;;;;;;;;5041462;28;20053;-68
2022/12/10 00:04:18;;;;;;;77.28;37.10;;;;;;;;;;5040398;28;20049;-71
2022/12/10 00:06:44;;;;;;;74.97;37.47;;;;;;;;;;5041262;28;20045;-69
2022/12/10 00:09:11;;;;;;;76.55;38.35;;;;;;;;;;5044351;28;20041;-68
2022/12/10 00:11:38;;;;;;;73.65;36.60;;;;;;;;;;5041770;28;20054;-69
2022/12/10 00:14:06;;;;;;;72.25;35.97;;;;;;;;;;5040585;28;20041;-69
2022/12/10 00:16:33;;;;;;;76.88;37.80;;;;;;;;;;5042108;28;20087;-68
2022/12/10 00:18:59;;;;;;;76.25;38.30;;;;;;;;;;5040762;28;20065;-68
2022/12/10 00:21:26;;;;;;;72.60;36.45;;;;;;;;;;5039055;28;20048;-68
2022/12/10 00:23:53;;;;;;;71.30;36.17;;;;;;;;;;5041523;28;20083;-69
2022/12/10 00:26:20;;;;;;;72.47;37.10;;;;;;;;;;5041728;28;20045;-71
2022/12/10 00:28:47;;;;;;;70.50;36.47;;;;;;;;;;5037959;28;20044;-70
2022/12/10 00:31:18;;;;;;;71.15;36.22;;;;;;;;;;5042547;28;20041;-71
2022/12/10 00:33:45;;;;;;;70.03;35.40;;;;;;;;;;5041112;28;20404;-70
2022/12/10 00:36:12;;;;;;;69.45;35.78;;;;;;;;;;5041585;28;20048;-71
2022/12/10 00:38:38;;;;;;;80.55;36.88;;;;;;;;;;5042176;28;20053;-71
2022/12/10 00:41:04;;;;;;;72.53;37.17;;;;;;;;;;5042342;28;20053;-71
2022/12/10 00:43:30;;;;;;;68.45;35.88;;;;;;;;;;5040331;28;20068;-68
2022/12/10 00:45:57;;;;;;;74.45;37.03;;;;;;;;;;5041545;28;20041;-71
2022/12/10 00:48:23;;;;;;;76.30;38.17;;;;;;;;;;5039288;28;20048;-70
2022/12/10 00:51:15;;;;;;;73.85;37.03;;;;;;;;;;5040442;28;20048;-69
2022/12/10 00:53:42;;;;;;;72.73;36.20;;;;;;;;;;5037149;28;20132;-68
2022/12/10 00:56:09;;;;;;;75.82;38.17;;;;;;;;;;5038944;28;20041;-71
2022/12/10 00:58:35;;;;;;;79.00;37.75;;;;;;;;;;5038599;28;20186;-68
2022/12/10 01:01:07;;;;;;;81.07;38.42;;;;;;;;;;5039964;28;20045;-72
2022/12/10 01:03:33;;;;;;;79.05;38.03;;;;;;;;;;5038068;28;20504;-71
2022/12/10 01:06:07;;;;;;;74.20;37.22;;;;;;;;;;5040021;28;20442;-71
2022/12/10 01:08:33;;;;;;;74.72;37.95;;;;;;;;;;5035046;28;20044;-71
2022/12/10 01:10:59;;;;;;;78.57;38.50;;;;;;;;;;5039228;28;20408;-70
2022/12/10 01:13:25;;;;;;;77.82;37.88;;;;;;;;;;5037433;28;20072;-71
2022/12/10 01:15:51;;;;;;;76.13;38.72;;;;;;;;;;5036541;28;20051;-68
2022/12/10 01:18:17;;;;;;;77.40;38.22;;;;;;;;;;5038647;28;20044;-70
2022/12/10 01:20:43;;;;;;;80.80;38.92;;;;;;;;;;5038090;28;20082;-70
2022/12/10 01:23:09;;;;;;;75.55;37.92;;;;;;;;;;5039737;28;20416;-69
2022/12/10 01:25:35;;;;;;;75.82;37.92;;;;;;;;;;5040140;28;20055;-67
2022/12/10 01:28:01;;;;;;;76.53;38.90;;;;;;;;;;5039771;28;20049;-70
2022/12/10 01:30:27;;;;;;;77.60;38.95;;;;;;;;;;5038193;28;20694;-69
2022/12/10 01:32:53;;;;;;;80.78;39.13;;;;;;;;;;5040294;28;20041;-71
2022/12/10 01:35:19;;;;;;;84.38;39.95;;;;;;;;;;5037416;28;20033;-71
2022/12/10 01:37:45;;;;;;;80.78;38.70;;;;;;;;;;5038116;28;20041;-71
2022/12/10 01:40:11;;;;;;;87.72;39.05;;;;;;;;;;5023105;28;20613;-69
2022/12/10 01:42:37;;;;;;;77.18;38.40;;;;;;;;;;5038885;28;20048;-71
2022/12/10 01:45:08;;;;;;;75.50;38.25;;;;;;;;;;5038075;28;20517;-69
2022/12/10 01:47:34;;;;;;;74.60;38.28;;;;;;;;;;5033450;28;20052;-69
2022/12/10 01:50:00;;;;;;;88.97;39.60;;;;;;;;;;5037250;28;20135;-69
2022/12/10 01:52:27;;;;;;;78.60;38.38;;;;;;;;;;5037984;28;20045;-70
2022/12/10 01:54:53;;;;;;;76.50;38.10;;;;;;;;;;5037081;28;20042;-70
2022/12/10 01:57:21;;;;;;;78.75;39.53;;;;;;;;;;5040560;28;20128;-69
2022/12/10 01:59:56;;;;;;;78.63;39.35;;;;;;;;;;5036934;28;20045;-70
2022/12/10 02:02:40;;;;;;;79.13;39.90;;;;;;;;;;5037441;28;20048;-68
2022/12/10 02:05:25;;;;;;;73.63;38.08;;;;;;;;;;5023490;28;20053;-69
2022/12/10 02:07:54;;;;;;;74.75;39.13;;;;;;;;;;5043936;28;20053;-69
2022/12/10 02:10:20;;;;;;;80.63;38.97;;;;;;;;;;5041336;28;20110;-71
2022/12/10 02:12:52;;;;;;;82.00;39.63;;;;;;;;;;5041172;28;20049;-71
2022/12/10 02:15:22;;;;;;;80.82;39.72;;;;;;;;;;5042185;28;20049;-68
2022/12/10 02:17:56;;;;;;;86.00;41.17;;;;;;;;;;5039438;28;20176;-71
2022/12/10 02:20:24;;;;;;;77.32;39.03;;;;;;;;;;5043616;28;20137;-71
2022/12/10 02:22:52;;;;;;;79.95;38.15;;;;;;;;;;5044173;28;20056;-70
2022/12/10 02:25:22;;;;;;;88.15;40.53;;;;;;;;;;5042394;28;20045;-68
2022/12/10 02:27:53;;;;;;;82.43;40.47;;;;;;;;;;5042412;28;20063;-71
2022/12/10 02:30:19;;;;;;;84.75;40.65;;;;;;;;;;5042077;28;20040;-68
2022/12/10 02:32:46;;;;;;;86.00;41.13;;;;;;;;;;5043452;28;20041;-69
2022/12/10 02:35:14;;;;;;;92.05;43.08;;;;;;;;;;5043193;28;20038;-69
2022/12/10 02:37:51;;;;;;;88.32;41.38;;;;;;;;;;5044102;28;20061;-71
2022/12/10 02:40:24;;;;;;;94.43;41.35;;;;;;;;;;5044380;28;20060;-69
2022/12/10 02:42:51;;;;;;;90.25;42.80;;;;;;;;;;5042787;28;20064;-70
2022/12/10 02:45:19;;;;;;;92.32;42.97;;;;;;;;;;5042084;28;20053;-71
2022/12/10 02:47:45;;;;;;;88.45;40.53;;;;;;;;;;5040028;28;20132;-70
2022/12/10 02:50:12;;;;;;;86.15;41.45;;;;;;;;;;5042576;28;20076;-69
2022/12/10 02:52:38;;;;;;;94.57;43.20;;;;;;;;;;5039805;28;20056;-70
2022/12/10 02:55:04;;;;;;;91.68;41.92;;;;;;;;;;5041454;28;20404;-72
2022/12/10 02:57:30;;;;;;;91.50;42.78;;;;;;;;;;5040932;28;20454;-73
2022/12/10 02:59:59;;;;;;;92.22;41.67;;;;;;;;;;5041625;28;20052;-72
2022/12/10 03:02:30;;;;;;;91.97;43.25;;;;;;;;;;5040818;28;20509;-69
2022/12/10 03:05:02;;;;;;;85.40;42.00;;;;;;;;;;5025537;28;20158;-72
2022/12/10 03:07:35;;;;;;;68.25;31.13;;;;;;;;;;5040108;28;20053;-69
2022/12/10 03:10:03;;;;;;;91.00;42.35;;;;;;;;;;5041371;28;20132;-69
2022/12/10 03:12:32;;;;;;;91.85;41.83;;;;;;;;;;5039689;28;20446;-72
2022/12/10 03:14:59;;;;;;;87.30;43.05;;;;;;;;;;5041980;28;20041;-69
2022/12/10 03:17:27;;;;;;;79.78;39.80;;;;;;;;;;5036360;28;20094;-72
2022/12/10 03:19:53;;;;;;;76.78;38.60;;;;;;;;;;5040486;28;20049;-72
2022/12/10 03:22:20;;;;;;;85.25;41.00;;;;;;;;;;5038315;28;20045;-70
2022/12/10 03:24:47;;;;;;;92.75;43.03;;;;;;;;;;5041294;28;20056;-69
2022/12/10 03:27:15;;;;;;;86.28;41.75;;;;;;;;;;5036385;28;20096;-71
2022/12/10 03:30:07;;;;;;;89.55;41.55;;;;;;;;;;5038476;28;20076;-73
2022/12/10 03:32:33;;;;;;;86.85;42.22;;;;;;;;;;5035857;28;20041;-72
2022/12/10 03:35:00;;;;;;;85.57;42.08;;;;;;;;;;5039933;28;20056;-70
2022/12/10 03:37:27;;;;;;;91.18;41.10;;;;;;;;;;5040890;28;20099;-71
2022/12/10 03:39:53;;;;;;;82.40;40.00;;;;;;;;;;5040217;28;20049;-70
2022/12/10 03:42:19;;;;;;;82.30;40.53;;;;;;;;;;5040111;28;20072;-73
2022/12/10 03:44:45;;;;;;;79.03;38.50;;;;;;;;;;5039298;28;21829;-70
2022/12/10 03:47:13;;;;;;;81.13;38.90;;;;;;;;;;5039154;28;20064;-71
2022/12/10 03:49:39;;;;;;;86.78;38.80;;;;;;;;;;5037907;28;20605;-72
2022/12/10 03:52:05;;;;;;;78.93;38.80;;;;;;;;;;5040811;28;20041;-72
2022/12/10 03:54:31;;;;;;;78.30;38.40;;;;;;;;;;5024770;28;20041;-70
2022/12/10 03:56:57;;;;;;;78.15;39.47;;;;;;;;;;5039538;28;20072;-73
2022/12/10 03:59:23;;;;;;;86.70;41.70;;;;;;;;;;5040576;28;20045;-70
2022/12/10 04:01:49;;;;;;;89.22;42.28;;;;;;;;;;5038620;28;20102;-71
2022/12/10 04:04:15;;;;;;;92.43;43.35;;;;;;;;;;5041558;28;20049;-73
2022/12/10 04:06:42;;;;;;;83.88;40.83;;;;;;;;;;5039983;28;20099;-72
2022/12/10 04:09:10;;;;;;;89.85;41.47;;;;;;;;;;5039172;28;20048;-72
2022/12/10 04:11:36;;;;;;;84.10;41.33;;;;;;;;;;5022677;28;20114;-72
2022/12/10 04:16:47;;;;;;;90.30;40.42;;;;;;;;;;5036903;28;20038;-73
2022/12/10 04:19:15;;;;;;;85.60;40.80;;;;;;;;;;5039321;28;20083;-73
2022/12/10 04:27:13;;;;;;;90.93;41.38;;;;;;;;;;5037566;28;20037;-72
2022/12/10 04:29:40;;;;;;;87.25;41.03;;;;;;;;;;5024785;28;20057;-70
2022/12/10 04:32:06;;;;;;;93.43;42.72;;;;;;;;;;5041010;28;20144;-73
2022/12/10 04:34:32;;;;;;;89.72;41.47;;;;;;;;;;5026520;28;20380;-73
2022/12/10 04:36:58;;;;;;;87.53;39.97;;;;;;;;;;5040597;28;20491;-72
2022/12/10 04:39:25;;;;;;;90.80;41.80;;;;;;;;;;5041209;28;20048;-73
2022/12/10 04:41:51;;;;;;;93.32;41.90;;;;;;;;;;5040320;28;20110;-71
2022/12/10 04:44:18;;;;;;;96.63;43.03;;;;;;;;;;5025029;28;20048;-73
2022/12/10 04:46:44;;;;;;;94.40;42.42;;;;;;;;;;5037960;28;20068;-71
2022/12/10 04:49:10;;;;;;;92.72;42.63;;;;;;;;;;5036704;28;20037;-72
2022/12/10 04:51:36;;;;;;;94.50;40.72;;;;;;;;;;5040427;28;20078;-74
2022/12/10 04:54:02;;;;;;;91.20;42.17;;;;;;;;;;5036088;28;20546;-71
2022/12/10 04:56:28;;;;;;;88.65;41.03;;;;;;;;;;5036391;28;20045;-71
2022/12/10 04:58:58;;;;;;;88.10;42.78;;;;;;;;;;5038077;28;20055;-73
2022/12/10 05:01:24;;;;;;;91.53;41.58;;;;;;;;;;5037294;28;20155;-70
2022/12/10 05:03:50;;;;;;;90.55;40.42;;;;;;;;;;5040144;28;20041;-72
2022/12/10 05:06:17;;;;;;;93.20;42.05;;;;;;;;;;5037515;28;20045;-72
2022/12/10 05:08:43;;;;;;;89.25;40.55;;;;;;;;;;5040171;28;20051;-70
2022/12/10 05:11:14;;;;;;;94.28;42.22;;;;;;;;;;5037180;28;20434;-72
2022/12/10 05:13:41;;;;;;;87.80;41.50;;;;;;;;;;5038090;28;20408;-73
2022/12/10 05:16:08;;;;;;;93.25;41.47;;;;;;;;;;5036690;28;20045;-71
2022/12/10 05:18:34;;;;;;;88.45;43.38;;;;;;;;;;5039208;28;20044;-70
2022/12/10 05:21:01;;;;;;;91.60;41.88;;;;;;;;;;5038168;28;20052;-72
2022/12/10 05:23:27;;;;;;;92.93;43.45;;;;;;;;;;5038150;28;20094;-72
2022/12/10 05:26:00;;;;;;;92.80;41.90;;;;;;;;;;5038947;28;20065;-72
2022/12/10 05:28:26;;;;;;;84.90;41.20;;;;;;;;;;5035739;28;20041;-72
2022/12/10 05:30:52;;;;;;;88.95;40.30;;;;;;;;;;5038373;28;20044;-71
2022/12/10 05:33:19;;;;;;;88.70;40.80;;;;;;;;;;5039573;28;20044;-71
2022/12/10 05:35:51;;;;;;;90.07;41.63;;;;;;;;;;5036078;28;20065;-73
2022/12/10 05:38:17;;;;;;;90.03;41.20;;;;;;;;;;5039043;28;20476;-74
2022/12/10 05:40:43;;;;;;;92.53;42.55;;;;;;;;;;5039093;28;20124;-74
2022/12/10 05:43:09;;;;;;;87.85;41.03;;;;;;;;;;5037438;28;20037;-71
2022/12/10 05:45:35;;;;;;;92.68;41.65;;;;;;;;;;5038876;28;20053;-73
2022/12/10 05:48:01;;;;;;;90.10;41.20;;;;;;;;;;5038221;28;20502;-71
2022/12/10 05:50:27;;;;;;;80.95;40.28;;;;;;;;;;5039113;28;20495;-74
2022/12/10 05:52:53;;;;;;;83.28;39.75;;;;;;;;;;5038780;28;20057;-71
2022/12/10 05:55:19;;;;;;;90.78;41.15;;;;;;;;;;5036844;28;20396;-71
2022/12/10 05:57:45;;;;;;;92.63;42.05;;;;;;;;;;5039419;28;20048;-71
2022/12/10 06:00:12;;;;;;;90.18;41.72;;;;;;;;;;5018300;28;20415;-73
2022/12/10 06:02:38;;;;;;;82.45;37.63;;;;;;;;;;5039536;28;20041;-73
2022/12/10 06:05:04;;;;;;;87.90;41.20;;;;;;;;;;5022839;28;20103;-74
2022/12/10 06:07:30;;;;;;;94.93;42.60;;;;;;;;;;5037594;28;20530;-72
2022/12/10 06:09:56;;;;;;;85.68;40.40;;;;;;;;;;5037738;28;20049;-71
2022/12/10 06:12:22;;;;;;;88.70;40.97;;;;;;;;;;5038380;28;20087;-72
2022/12/10 06:14:48;;;;;;;87.70;40.83;;;;;;;;;;5035497;28;20065;-74
2022/12/10 06:17:14;;;;;;;85.43;39.90;;;;;;;;;;5041695;28;20396;-71
2022/12/10 06:19:40;;;;;;;80.38;39.53;;;;;;;;;;5038314;28;20041;-71
2022/12/10 06:22:06;;;;;;;89.22;41.25;;;;;;;;;;5039941;28;20076;-71
2022/12/10 06:24:32;;;;;;;88.07;40.22;;;;;;;;;;5042400;28;20037;-73
2022/12/10 06:26:58;;;;;;;88.57;41.60;;;;;;;;;;5038580;28;20056;-74
2022/12/10 06:29:24;;;;;;;92.10;42.08;;;;;;;;;;5039632;28;20055;-73
2022/12/10 06:31:50;;;;;;;79.07;37.63;;;;;;;;;;5040512;28;22035;-71
2022/12/10 06:34:16;;;;;;;71.60;36.20;;;;;;;;;;5039205;28;20094;-74
2022/12/10 06:36:42;;;;;;;73.05;36.20;;;;;;;;;;5038119;28;20045;-72
2022/12/10 06:39:08;;;;;;;74.50;36.47;;;;;;;;;;5024587;28;20044;-71
2022/12/10 06:41:34;;;;;;;73.55;35.53;;;;;;;;;;5040258;28;20060;-71
2022/12/10 06:44:00;;;;;;;72.00;36.00;;;;;;;;;;5040343;28;20095;-73
2022/12/10 06:46:28;;;;;;;71.60;37.10;;;;;;;;;;5022752;28;20045;-74
2022/12/10 06:48:54;;;;;;;74.35;37.95;;;;;;;;;;5035459;28;20037;-71
2022/12/10 06:51:20;;;;;;;77.55;37.10;;;;;;;;;;5036397;28;20048;-72
2022/12/10 06:53:46;;;;;;;76.45;37.60;;;;;;;;;;5040699;28;20040;-70
2022/12/10 06:56:14;;;;;;;91.28;42.60;;;;;;;;;;5039482;28;20103;-71
2022/12/10 06:58:41;;;;;;;87.63;40.42;;;;;;;;;;5042657;28;20037;-72
2022/12/10 07:01:21;;;;;;;95.45;42.08;;;;;;;;;;5043275;28;20498;-74
2022/12/10 07:03:49;;;;;;;87.32;41.28;;;;;;;;;;5040037;28;20041;-73
2022/12/10 07:06:15;;;;;;;93.28;42.28;;;;;;;;;;5042288;28;20056;-71
2022/12/10 07:08:41;;;;;;;88.60;40.35;;;;;;;;;;5039620;28;20076;-73
2022/12/10 07:11:08;;;;;;;82.38;40.25;;;;;;;;;;5039891;28;20052;-73
2022/12/10 07:13:34;;;;;;;87.45;40.17;;;;;;;;;;5039234;28;20051;-74
2022/12/10 07:16:00;;;;;;;77.95;37.75;;;;;;;;;;5041090;28;20103;-74
2022/12/10 07:18:27;;;;;;;82.75;39.30;;;;;;;;;;5041827;28;20045;-74
2022/12/10 07:20:53;;;;;;;76.95;35.95;;;;;;;;;;5052902;28;20049;-73
2022/12/10 07:23:19;;;;;;;77.22;37.13;;;;;;;;;;5036738;28;20069;-73
2022/12/10 07:25:45;;;;;;;84.68;38.35;;;;;;;;;;5034504;28;20127;-73
2022/12/10 07:28:11;;;;;;;79.28;38.38;;;;;;;;;;5036035;28;20102;-72
2022/12/10 07:30:37;;;;;;;84.22;40.22;;;;;;;;;;5040164;28;20063;-71
2022/12/10 07:33:04;;;;;;;78.20;37.30;;;;;;;;;;5039459;28;20045;-72
2022/12/10 07:35:30;;;;;;;82.93;37.97;;;;;;;;;;5041642;28;20049;-72
2022/12/10 07:37:56;;;;;;;83.70;40.38;;;;;;;;;;5039842;28;20048;-74
2022/12/10 07:40:22;;;;;;;94.45;43.08;;;;;;;;;;5024351;28;20080;-72
2022/12/10 07:42:48;;;;;;;105.60;44.70;;;;;;;;;;5037623;28;20214;-72
2022/12/10 07:45:14;;;;;;;105.97;45.65;;;;;;;;;;5038551;28;20187;-73
2022/12/10 07:47:40;;;;;;;101.88;45.15;;;;;;;;;;5041729;28;20055;-72
2022/12/10 07:50:06;;;;;;;98.22;44.55;;;;;;;;;;5023757;28;20045;-72
2022/12/10 07:52:32;;;;;;;106.75;45.22;;;;;;;;;;5020637;28;20080;-71
2022/12/10 07:54:59;;;;;;;105.15;45.38;;;;;;;;;;5041311;28;20044;-71
2022/12/10 07:57:25;;;;;;;106.68;45.75;;;;;;;;;;5024591;28;20361;-71
2022/12/10 07:59:51;;;;;;;110.82;47.03;;;;;;;;;;5039264;28;20041;-74
2022/12/10 08:02:17;;;;;;;103.45;45.67;;;;;;;;;;5041235;28;20049;-72
2022/12/10 08:04:43;;;;;;;107.22;46.72;;;;;;;;;;5043352;28;20499;-74
2022/12/10 08:07:09;;;;;;;111.40;47.35;;;;;;;;;;5023095;28;20124;-72
2022/12/10 08:09:35;;;;;;;106.63;47.30;;;;;;;;;;5040069;28;20036;-74
2022/12/10 08:12:01;;;;;;;114.30;47.42;;;;;;;;;;5038035;28;20056;-74
2022/12/10 08:14:27;;;;;;;104.70;45.55;;;;;;;;;;5022074;28;20126;-71
2022/12/10 08:16:53;;;;;;;111.85;47.60;;;;;;;;;;5036987;28;20041;-72
2022/12/10 08:19:19;;;;;;;115.78;48.60;;;;;;;;;;5038196;28;20052;-71
2022/12/10 08:21:45;;;;;;;103.95;46.45;;;;;;;;;;5038701;28;20380;-73
2022/12/10 08:24:11;;;;;;;101.53;45.15;;;;;;;;;;5038791;28;20049;-71
2022/12/10 08:26:38;;;;;;;109.75;48.35;;;;;;;;;;5039757;28;20049;-71
2022/12/10 08:29:04;;;;;;;118.60;48.88;;;;;;;;;;5039718;28;20139;-70
2022/12/10 08:31:31;;;;;;;111.88;46.28;;;;;;;;;;5043530;28;20045;-72
2022/12/10 08:33:57;;;;;;;115.38;47.40;;;;;;;;;;5046254;28;20044;-73
2022/12/10 08:36:23;;;;;;;111.05;48.28;;;;;;;;;;5028837;28;20045;-70
2022/12/10 08:38:49;;;;;;;113.25;48.08;;;;;;;;;;5038090;28;20048;-73
2022/12/10 08:41:17;;;;;;;115.10;48.88;;;;;;;;;;5037796;28;20040;-71
2022/12/10 08:43:43;;;;;;;113.53;48.25;;;;;;;;;;5039430;28;20049;-73
2022/12/10 08:46:10;;;;;;;112.93;48.05;;;;;;;;;;5038811;28;20062;-72
2022/12/10 08:48:36;;;;;;;111.80;49.00;;;;;;;;;;5038295;28;20049;-70
2022/12/10 08:51:03;;;;;;;111.75;48.33;;;;;;;;;;5043002;28;20045;-70
2022/12/10 08:53:29;;;;;;;106.15;46.58;;;;;;;;;;5038292;28;20048;-68
2022/12/10 08:55:55;;;;;;;104.63;48.67;;;;;;;;;;5043030;28;20048;-70
2022/12/10 08:58:21;;;;;;;114.95;49.50;;;;;;;;;;5040925;28;20073;-75
2022/12/10 09:00:48;;;;;;;108.32;47.72;;;;;;;;;;5028537;28;20050;-74
2022/12/10 09:03:14;;;;;;;113.38;48.40;;;;;;;;;;5040663;28;20048;-75
2022/12/10 09:05:40;;;;;;;117.72;49.42;;;;;;;;;;5024910;28;20518;-75
2022/12/10 09:08:06;;;;;;;153.75;50.53;;;;;;;;;;5040712;28;20040;-73
2022/12/10 09:10:32;;;;;;;140.30;50.60;;;;;;;;;;5045301;28;20067;-73
2022/12/10 09:12:58;;;;;;;112.35;48.20;;;;;;;;;;5039518;28;20178;-76
2022/12/10 09:15:24;;;;;;;118.70;48.72;;;;;;;;;;5041326;28;20174;-73
2022/12/10 09:17:50;;;;;;;120.35;49.92;;;;;;;;;;5040842;28;20033;-75
2022/12/10 09:20:16;;;;;;;106.45;45.33;;;;;;;;;;5046642;28;20436;-76
2022/12/10 09:22:42;;;;;;;114.53;49.85;;;;;;;;;;5044640;28;20132;-73
2022/12/10 09:25:09;;;;;;;112.05;47.25;;;;;;;;;;5042239;28;20127;-75
2022/12/10 09:27:35;;;;;;;114.88;49.58;;;;;;;;;;5041072;28;20052;-75
2022/12/10 09:30:03;;;;;;;112.85;48.58;;;;;;;;;;5039648;28;20049;-75
2022/12/10 09:32:29;;;;;;;112.28;49.17;;;;;;;;;;5039069;28;20412;-75
2022/12/10 09:34:55;;;;;;;103.57;46.08;;;;;;;;;;5035119;28;20041;-75
2022/12/10 09:37:21;;;;;;;104.82;46.80;;;;;;;;;;5038207;28;20045;-74
2022/12/10 09:39:47;;;;;;;104.53;49.22;;;;;;;;;;5043063;28;20049;-73
2022/12/10 09:42:16;;;;;;;110.22;47.90;;;;;;;;;;5040332;28;20045;-74
2022/12/10 09:44:57;;;;;;;108.18;47.15;;;;;;;;;;5040960;28;20060;-75
2022/12/10 09:47:39;;;;;;;111.97;46.78;;;;;;;;;;5038224;28;20041;-75
2022/12/10 09:50:12;;;;;;;108.57;46.90;;;;;;;;;;5042029;28;20047;-74
2022/12/10 09:52:41;;;;;;;105.93;46.80;;;;;;;;;;5037819;28;20052;-72
2022/12/10 09:55:13;;;;;;;111.28;49.72;;;;;;;;;;5039463;28;20041;-74
2022/12/10 09:57:40;;;;;;;104.10;47.05;;;;;;;;;;5022589;28;20103;-75
2022/12/10 10:00:26;;;;;;;106.43;47.00;;;;;;;;;;5036837;28;20550;-75
2022/12/10 10:02:55;;;;;;;111.53;49.20;;;;;;;;;;5030658;28;20049;-74
2022/12/10 10:05:23;;;;;;;108.88;46.78;;;;;;;;;;5039401;28;20561;-73
2022/12/10 10:07:55;;;;;;;110.43;48.80;;;;;;;;;;5036031;28;20057;-73
2022/12/10 10:10:27;;;;;;;110.47;48.00;;;;;;;;;;5039876;28;20045;-77
2022/12/10 10:12:55;;;;;;;108.63;45.38;;;;;;;;;;5024001;28;20057;-73
2022/12/10 10:15:29;;;;;;;111.07;46.38;;;;;;;;;;5042524;28;20629;-72
2022/12/10 10:17:57;;;;;;;114.97;48.88;;;;;;;;;;5035405;28;20502;-75
2022/12/10 10:20:23;;;;;;;113.43;47.13;;;;;;;;;;5039182;28;20037;-74
2022/12/10 10:22:49;;;;;;;119.85;48.35;;;;;;;;;;5042970;28;20045;-74
2022/12/10 10:25:16;;;;;;;118.75;47.08;;;;;;;;;;5038609;28;20415;-74
2022/12/10 10:27:43;;;;;;;120.45;49.05;;;;;;;;;;5037732;28;20049;-72
2022/12/10 10:30:16;;;;;;;114.00;47.17;;;;;;;;;;5039739;28;20052;-74
2022/12/10 10:32:45;;;;;;;118.32;47.65;;;;;;;;;;5043509;28;20041;-75
2022/12/10 10:35:20;;;;;;;141.70;49.80;;;;;;;;;;5043590;28;20064;-76
2022/12/10 10:37:46;;;;;;;121.47;48.97;;;;;;;;;;5042813;28;20471;-75
2022/12/10 10:40:33;;;;;;;126.22;49.55;;;;;;;;;;5041876;28;20071;-75
2022/12/10 10:43:00;;;;;;;112.40;47.05;;;;;;;;;;5044574;28;20045;-74
2022/12/10 10:45:42;;;;;;;118.85;48.13;;;;;;;;;;5043809;28;20164;-74
2022/12/10 10:48:18;;;;;;;120.10;47.42;;;;;;;;;;5044964;28;20044;-75
2022/12/10 10:50:50;;;;;;;121.07;48.42;;;;;;;;;;5042641;28;20049;-76
2022/12/10 10:53:22;;;;;;;128.82;53.25;;;;;;;;;;5051707;28;20442;-74
2022/12/10 10:55:48;;;;;;;108.32;42.28;;;;;;;;;;5050031;28;20056;-74
2022/12/10 10:58:20;;;;;;;124.63;48.50;;;;;;;;;;5051172;28;20048;-74
2022/12/10 11:00:54;;;;;;;133.45;50.67;;;;;;;;;;5047877;28;20040;-75
2022/12/10 11:03:20;;;;;;;131.60;48.50;;;;;;;;;;5041263;28;20983;-75
2022/12/10 11:05:48;;;;;;;122.20;49.20;;;;;;;;;;5049056;28;20504;-76
2022/12/10 11:08:17;;;;;;;129.73;50.72;;;;;;;;;;5047531;28;20045;-77
2022/12/10 11:11:01;;;;;;;111.53;47.33;;;;;;;;;;5030584;28;20127;-74
2022/12/10 11:13:29;;;;;;;109.30;45.15;;;;;;;;;;5041607;28;20061;-73
2022/12/10 11:16:15;;;;;;;111.28;45.58;;;;;;;;;;5047744;28;20091;-75
2022/12/10 11:18:42;;;;;;;107.18;45.25;;;;;;;;;;5044097;28;20503;-74
2022/12/10 11:21:17;;;;;;;92.93;41.90;;;;;;;;;;5040720;28;20037;-74
2022/12/10 11:23:47;;;;;;;85.40;38.30;;;;;;;;;;5052114;28;20049;-74
2022/12/10 11:26:13;;;;;;;88.40;39.90;;;;;;;;;;5045015;28;20049;-77
2022/12/10 11:29:02;;;;;;;90.10;39.40;;;;;;;;;;5047377;28;20067;-74
2022/12/10 11:31:47;;;;;;;97.18;40.05;;;;;;;;;;5049369;28;20041;-74
2022/12/10 11:34:22;;;;;;;102.95;43.75;;;;;;;;;;5038818;28;20496;-73
2022/12/10 11:36:48;;;;;;;101.75;44.35;;;;;;;;;;5048607;28;20120;-74
2022/12/10 11:39:17;;;;;;;108.15;44.42;;;;;;;;;;5045165;28;20191;-76
2022/12/10 11:41:54;;;;;;;106.60;45.15;;;;;;;;;;5048629;28;20045;-76
2022/12/10 11:44:25;;;;;;;105.57;45.65;;;;;;;;;;5050214;28;20049;-74
2022/12/10 11:46:54;;;;;;;100.85;44.72;;;;;;;;;;5045634;28;20040;-74
2022/12/10 11:49:23;;;;;;;102.45;45.45;;;;;;;;;;5032017;28;20040;-74
2022/12/10 11:52:06;;;;;;;104.40;43.90;;;;;;;;;;5048857;28;20079;-75
2022/12/10 11:54:45;;;;;;;99.35;44.10;;;;;;;;;;5050002;28;20407;-76
2022/12/10 11:57:17;;;;;;;102.80;43.47;;;;;;;;;;5042661;28;20051;-74
2022/12/10 12:00:02;;;;;;;103.53;44.13;;;;;;;;;;5041465;28;20047;-76
2022/12/10 12:02:47;;;;;;;117.38;46.88;;;;;;;;;;5045280;28;20863;-74
2022/12/10 12:05:32;;;;;;;114.03;45.58;;;;;;;;;;5041379;28;20045;-76
2022/12/10 12:08:04;;;;;;;103.55;45.10;;;;;;;;;;5044516;28;20049;-75
2022/12/10 12:11:08;;;;;;;99.57;44.40;;;;;;;;;;5045192;28;20123;-75
2022/12/10 12:13:51;;;;;;;112.50;44.00;;;;;;;;;;4985224;28;20163;-75
2022/12/10 12:16:20;;;;;;;112.70;44.10;;;;;;;;;;4982222;28;20049;-75
2022/12/10 12:18:49;;;;;;;112.45;46.33;;;;;;;;;;5012796;28;20037;-74
2022/12/10 12:21:16;;;;;;;117.63;46.20;;;;;;;;;;5045081;28;20504;-76
2022/12/10 12:23:52;;;;;;;109.97;45.63;;;;;;;;;;5044097;28;20048;-75
2022/12/10 12:26:24;;;;;;;121.40;46.30;;;;;;;;;;5042116;28;20453;-75
2022/12/10 12:28:56;;;;;;;;;;;;;;;;;;5032001;28;20052;-75
2022/12/10 12:31:35;;;;;;;116.20;46.13;;;;;;;;;;5025029;28;19921;-75
2022/12/10 12:34:01;;;;;;;120.75;45.40;;;;;;;;;;5043595;28;20049;-75
2022/12/10 12:36:29;;;;;;;118.22;45.78;;;;;;;;;;5048850;28;20123;-75
2022/12/10 12:39:01;;;;;;;125.65;47.72;;;;;;;;;;5046347;28;20139;-73
2022/12/10 12:41:32;;;;;;;130.40;47.78;;;;;;;;;;5031270;28;20495;-71
2022/12/10 12:44:04;;;;;;;122.93;47.95;;;;;;;;;;5018948;28;20499;-73
2022/12/10 12:46:35;;;;;;;127.13;47.53;;;;;;;;;;5023357;28;20391;-73
2022/12/10 12:49:11;;;;;;;128.95;48.10;;;;;;;;;;5044301;28;20499;-74
2022/12/10 12:51:51;;;;;;;131.63;49.00;;;;;;;;;;5041833;28;20427;-73
2022/12/10 12:54:17;;;;;;;135.45;49.33;;;;;;;;;;5042184;28;20077;-73
2022/12/10 12:56:53;;;;;;;131.60;49.15;;;;;;;;;;5029383;28;20278;-73
2022/12/10 12:59:31;;;;;;;126.47;49.47;;;;;;;;;;5029243;28;20137;-70
2022/12/10 13:01:59;;;;;;;127.25;48.28;;;;;;;;;;5048209;28;20072;-72
2022/12/10 13:04:26;;;;;;;116.97;45.53;;;;;;;;;;5049430;28;20514;-71
2022/12/10 13:07:11;;;;;;;125.35;47.22;;;;;;;;;;5032046;28;20765;-71
2022/12/10 13:09:44;;;;;;;126.80;48.00;;;;;;;;;;5050822;28;20128;-71
2022/12/10 13:12:10;;;;;;;;;;;;;;;;;;5044168;28;20093;-70
2022/12/10 13:14:55;;;;;;;123.10;45.88;;;;;;;;;;5033105;28;19939;-75
2022/12/10 13:17:27;;;;;;;119.97;46.50;;;;;;;;;;5046691;28;20051;-73
2022/12/10 13:19:56;;;;;;;;;;;;;;;;;;5030309;28;20444;-72
2022/12/10 13:22:38;;;;;;;122.70;46.28;;;;;;;;;;5043339;28;19943;-73
2022/12/10 13:25:11;;;;;;;128.15;49.28;;;;;;;;;;5047168;28;20463;-72
2022/12/10 13:27:37;;;;;;;126.82;49.67;;;;;;;;;;5045798;28;20053;-72
2022/12/10 13:30:13;;;;;;;137.88;50.55;;;;;;;;;;5048306;28;20407;-71
2022/12/10 13:32:39;;;;;;;130.02;49.70;;;;;;;;;;5022832;28;20132;-70
2022/12/10 13:35:08;;;;;;;135.90;52.30;;;;;;;;;;5045881;28;20144;-70
2022/12/10 13:37:36;;;;;;;126.03;48.95;;;;;;;;;;5043684;28;21244;-71
2022/12/10 13:40:23;;;;;;;133.88;51.88;;;;;;;;;;5046797;28;20045;-72
2022/12/10 13:45:41;;;;;;;129.82;49.22;;;;;;;;;;5043989;28;20425;-70
2022/12/10 13:48:23;;;;;;;143.90;52.15;;;;;;;;;;5029931;28;20067;-70
2022/12/10 13:50:54;;;;;;;127.70;47.88;;;;;;;;;;5019357;28;20036;-71
2022/12/10 13:53:40;;;;;;;139.15;51.03;;;;;;;;;;5026210;28;20124;-71
2022/12/10 13:56:17;;;;;;;133.75;50.25;;;;;;;;;;5029580;28;20056;-73
2022/12/10 13:58:47;;;;;;;129.45;47.33;;;;;;;;;;5044883;28;20170;-72
2022/12/10 14:01:15;;;;;;;128.90;47.17;;;;;;;;;;5030500;28;20056;-70
2022/12/10 14:04:00;;;;;;;120.50;46.88;;;;;;;;;;5045814;28;20098;-72
2022/12/10 14:06:26;;;;;;;129.45;49.70;;;;;;;;;;5045657;28;20045;-71
2022/12/10 14:08:52;;;;;;;129.70;49.08;;;;;;;;;;5045916;28;20053;-72
2022/12/10 14:11:21;;;;;;;124.47;48.85;;;;;;;;;;5045901;28;20064;-72
2022/12/10 14:13:49;;;;;;;132.77;50.67;;;;;;;;;;5040609;28;20044;-73
2022/12/10 14:16:16;;;;;;;128.02;48.10;;;;;;;;;;5042298;28;20037;-73
2022/12/10 14:18:43;;;;;;;123.28;48.03;;;;;;;;;;5043358;28;20123;-72
2022/12/10 14:21:12;;;;;;;123.70;47.45;;;;;;;;;;5041378;28;20037;-71
2022/12/10 14:23:44;;;;;;;129.68;49.63;;;;;;;;;;5040205;28;20130;-70
2022/12/10 14:26:13;;;;;;;131.15;48.80;;;;;;;;;;5041162;28;20059;-69
2022/12/10 14:28:40;;;;;;;119.43;45.70;;;;;;;;;;5041536;28;20083;-72
2022/12/10 14:31:11;;;;;;;126.03;48.15;;;;;;;;;;5040461;28;20136;-71
2022/12/10 14:33:37;;;;;;;123.50;46.70;;;;;;;;;;5027247;28;20041;-71
2022/12/10 14:36:04;;;;;;;114.93;45.95;;;;;;;;;;5039767;28;20041;-72